sensor_id;sensor_type;location;lat;lon;timestamp;P1;durP1;ratioP1;P2;durP2;ratioP2
65896;SDS011;52677;50.898;10.854;2023-11-18T00:00:24;2.97;;;2.28;;
65896;SDS011;52677;50.898;10.854;2023-11-18T00:02:25;3.53;;;2.47;;
65896;SDS011;52677;50.898;10.854;2023-11-18T00:04:25;3.63;;;2.20;;
65896;SDS011;52677;50.898;10.854;2023-11-18T00:06:25;5.63;;;2.40;;
65896;SDS011;52677;50.898;10.854;2023-11-18T00:08:26;3.72;;;2.63;;
65896;SDS011;52677;50.898;10.854;2023-11-18T00:10:26;3.95;;;3.00;;
65896;SDS011;52677;50.898;10.854;2023-11-18T00:12:27;2.15;;;1.85;;
65896;SDS011;52677;50.898;10.854;2023-11-18T00:14:27;4.05;;;2.40;;
65896;SDS011;52677;50.898;10.854;2023-11-18T00:16:27;4.45;;;2.30;;
65896;SDS011;52677;50.898;10.854;2023-11-18T00:18:29;3.70;;;1.95;;
65896;SDS011;52677;50.898;10.854;2023-11-18T00:20:31;4.15;;;2.13;;
65896;SDS011;52677;50.898;10.854;2023-11-18T00:22:32;4.55;;;2.20;;
65896;SDS011;52677;50.898;10.854;2023-11-18T00:24:32;4.35;;;2.10;;
65896;SDS011;52677;50.898;10.854;2023-11-18T00:26:34;3.70;;;2.13;;
65896;SDS011;52677;50.898;10.854;2023-11-18T00:28:34;4.22;;;2.10;;
65896;SDS011;52677;50.898;10.854;2023-11-18T00:30:35;2.95;;;1.92;;
65896;SDS011;52677;50.898;10.854;2023-11-18T00:32:35;9.93;;;2.45;;
65896;SDS011;52677;50.898;10.854;2023-11-18T00:34:36;3.40;;;2.20;;
65896;SDS011;52677;50.898;10.854;2023-11-18T00:36:36;3.55;;;1.90;;
65896;SDS011;52677;50.898;10.854;2023-11-18T00:38:36;2.88;;;2.03;;
65896;SDS011;52677;50.898;10.854;2023-11-18T00:40:37;4.70;;;1.90;;
65896;SDS011;52677;50.898;10.854;2023-11-18T00:42:37;2.65;;;1.90;;
65896;SDS011;52677;50.898;10.854;2023-11-18T00:44:38;4.32;;;2.38;;
65896;SDS011;52677;50.898;10.854;2023-11-18T00:46:38;2.92;;;1.88;;
65896;SDS011;52677;50.898;10.854;2023-11-18T00:48:39;2.60;;;1.70;;
65896;SDS011;52677;50.898;10.854;2023-11-18T00:50:39;2.42;;;1.77;;
65896;SDS011;52677;50.898;10.854;2023-11-18T00:52:39;3.53;;;2.00;;
65896;SDS011;52677;50.898;10.854;2023-11-18T00:54:43;3.33;;;2.05;;
65896;SDS011;52677;50.898;10.854;2023-11-18T00:56:43;3.15;;;1.80;;
65896;SDS011;52677;50.898;10.854;2023-11-18T00:58:43;3.35;;;1.95;;
65896;SDS011;52677;50.898;10.854;2023-11-18T01:00:44;5.15;;;1.83;;
65896;SDS011;52677;50.898;10.854;2023-11-18T01:02:44;5.32;;;2.15;;
65896;SDS011;52677;50.898;10.854;2023-11-18T01:04:47;4.30;;;2.10;;
65896;SDS011;52677;50.898;10.854;2023-11-18T01:06:48;3.00;;;2.13;;
65896;SDS011;52677;50.898;10.854;2023-11-18T01:08:48;3.58;;;2.00;;
65896;SDS011;52677;50.898;10.854;2023-11-18T01:10:49;5.57;;;2.20;;
65896;SDS011;52677;50.898;10.854;2023-11-18T01:12:49;2.72;;;2.10;;
65896;SDS011;52677;50.898;10.854;2023-11-18T01:14:49;3.13;;;2.17;;
65896;SDS011;52677;50.898;10.854;2023-11-18T01:16:50;3.47;;;1.83;;
65896;SDS011;52677;50.898;10.854;2023-11-18T01:18:50;3.58;;;2.58;;
65896;SDS011;52677;50.898;10.854;2023-11-18T01:20:50;5.03;;;2.53;;
65896;SDS011;52677;50.898;10.854;2023-11-18T01:22:51;3.10;;;2.13;;
65896;SDS011;52677;50.898;10.854;2023-11-18T01:24:51;3.00;;;2.22;;
65896;SDS011;52677;50.898;10.854;2023-11-18T01:26:52;3.75;;;1.98;;
65896;SDS011;52677;50.898;10.854;2023-11-18T01:28:52;2.88;;;2.20;;
65896;SDS011;52677;50.898;10.854;2023-11-18T01:30:52;3.67;;;2.22;;
65896;SDS011;52677;50.898;10.854;2023-11-18T01:32:53;2.58;;;1.95;;
65896;SDS011;52677;50.898;10.854;2023-11-18T01:34:53;4.53;;;1.90;;
65896;SDS011;52677;50.898;10.854;2023-11-18T01:36:53;2.78;;;1.80;;
65896;SDS011;52677;50.898;10.854;2023-11-18T01:38:54;2.38;;;1.70;;
65896;SDS011;52677;50.898;10.854;2023-11-18T01:40:55;4.32;;;2.30;;
65896;SDS011;52677;50.898;10.854;2023-11-18T01:42:55;3.30;;;1.83;;
65896;SDS011;52677;50.898;10.854;2023-11-18T01:44:55;6.20;;;2.25;;
65896;SDS011;52677;50.898;10.854;2023-11-18T01:46:57;4.38;;;1.63;;
65896;SDS011;52677;50.898;10.854;2023-11-18T01:48:58;2.95;;;2.13;;
65896;SDS011;52677;50.898;10.854;2023-11-18T01:50:58;3.83;;;2.47;;
65896;SDS011;52677;50.898;10.854;2023-11-18T01:55:02;2.55;;;1.80;;
65896;SDS011;52677;50.898;10.854;2023-11-18T01:57:06;2.53;;;1.80;;
65896;SDS011;52677;50.898;10.854;2023-11-18T02:01:10;2.03;;;1.50;;
65896;SDS011;52677;50.898;10.854;2023-11-18T02:03:10;3.03;;;2.30;;
65896;SDS011;52677;50.898;10.854;2023-11-18T02:05:11;4.70;;;2.17;;
65896;SDS011;52677;50.898;10.854;2023-11-18T02:07:13;3.80;;;2.60;;
65896;SDS011;52677;50.898;10.854;2023-11-18T02:09:15;19.85;;;10.75;;
65896;SDS011;52677;50.898;10.854;2023-11-18T02:13:28;15.88;;;7.97;;
65896;SDS011;52677;50.898;10.854;2023-11-18T02:15:32;13.80;;;7.50;;
65896;SDS011;52677;50.898;10.854;2023-11-18T02:17:38;24.67;;;12.38;;
65896;SDS011;52677;50.898;10.854;2023-11-18T02:19:39;13.25;;;7.05;;
65896;SDS011;52677;50.898;10.854;2023-11-18T02:21:40;4.88;;;2.78;;
65896;SDS011;52677;50.898;10.854;2023-11-18T02:23:41;3.58;;;1.75;;
65896;SDS011;52677;50.898;10.854;2023-11-18T02:25:42;2.70;;;1.63;;
65896;SDS011;52677;50.898;10.854;2023-11-18T02:27:45;4.05;;;2.20;;
65896;SDS011;52677;50.898;10.854;2023-11-18T02:29:46;3.25;;;2.10;;
65896;SDS011;52677;50.898;10.854;2023-11-18T02:31:49;2.72;;;1.60;;
65896;SDS011;52677;50.898;10.854;2023-11-18T02:34:00;2.28;;;1.75;;
65896;SDS011;52677;50.898;10.854;2023-11-18T02:36:09;6.50;;;2.40;;
65896;SDS011;52677;50.898;10.854;2023-11-18T02:38:15;2.85;;;1.83;;
65896;SDS011;52677;50.898;10.854;2023-11-18T02:40:20;5.15;;;2.00;;
65896;SDS011;52677;50.898;10.854;2023-11-18T02:42:30;2.75;;;2.13;;
65896;SDS011;52677;50.898;10.854;2023-11-18T02:44:31;2.90;;;2.30;;
65896;SDS011;52677;50.898;10.854;2023-11-18T02:46:32;6.30;;;2.00;;
65896;SDS011;52677;50.898;10.854;2023-11-18T02:48:32;3.00;;;2.20;;
65896;SDS011;52677;50.898;10.854;2023-11-18T02:50:33;3.65;;;2.35;;
65896;SDS011;52677;50.898;10.854;2023-11-18T02:52:35;5.60;;;2.30;;
65896;SDS011;52677;50.898;10.854;2023-11-18T02:54:35;4.93;;;2.53;;
65896;SDS011;52677;50.898;10.854;2023-11-18T02:56:36;3.75;;;2.25;;
65896;SDS011;52677;50.898;10.854;2023-11-18T02:58:37;3.67;;;1.92;;
65896;SDS011;52677;50.898;10.854;2023-11-18T03:00:37;4.70;;;2.88;;
65896;SDS011;52677;50.898;10.854;2023-11-18T03:02:38;3.72;;;1.90;;
65896;SDS011;52677;50.898;10.854;2023-11-18T03:04:39;4.40;;;2.20;;
65896;SDS011;52677;50.898;10.854;2023-11-18T03:06:42;4.50;;;2.30;;
65896;SDS011;52677;50.898;10.854;2023-11-18T03:08:43;3.22;;;2.45;;
65896;SDS011;52677;50.898;10.854;2023-11-18T03:10:44;3.63;;;2.38;;
65896;SDS011;52677;50.898;10.854;2023-11-18T03:12:44;3.15;;;2.40;;
65896;SDS011;52677;50.898;10.854;2023-11-18T03:14:45;2.90;;;2.15;;
65896;SDS011;52677;50.898;10.854;2023-11-18T03:16:46;3.92;;;2.20;;
65896;SDS011;52677;50.898;10.854;2023-11-18T03:18:46;4.63;;;2.63;;
65896;SDS011;52677;50.898;10.854;2023-11-18T03:20:46;4.85;;;2.00;;
65896;SDS011;52677;50.898;10.854;2023-11-18T03:22:49;4.00;;;2.20;;
65896;SDS011;52677;50.898;10.854;2023-11-18T03:24:51;3.38;;;2.08;;
65896;SDS011;52677;50.898;10.854;2023-11-18T03:26:51;9.70;;;3.03;;
65896;SDS011;52677;50.898;10.854;2023-11-18T03:28:51;3.25;;;2.33;;
65896;SDS011;52677;50.898;10.854;2023-11-18T03:30:52;3.53;;;2.22;;
65896;SDS011;52677;50.898;10.854;2023-11-18T03:32:53;4.47;;;2.08;;
65896;SDS011;52677;50.898;10.854;2023-11-18T03:34:53;3.65;;;2.10;;
65896;SDS011;52677;50.898;10.854;2023-11-18T03:36:54;2.63;;;2.05;;
65896;SDS011;52677;50.898;10.854;2023-11-18T03:38:57;5.78;;;2.70;;
65896;SDS011;52677;50.898;10.854;2023-11-18T03:40:57;5.10;;;2.65;;
65896;SDS011;52677;50.898;10.854;2023-11-18T03:42:58;4.60;;;2.53;;
65896;SDS011;52677;50.898;10.854;2023-11-18T03:44:58;4.18;;;2.55;;
65896;SDS011;52677;50.898;10.854;2023-11-18T03:46:58;4.10;;;2.40;;
65896;SDS011;52677;50.898;10.854;2023-11-18T03:49:00;3.45;;;2.58;;
65896;SDS011;52677;50.898;10.854;2023-11-18T03:51:01;3.00;;;2.00;;
65896;SDS011;52677;50.898;10.854;2023-11-18T03:53:03;3.58;;;2.65;;
65896;SDS011;52677;50.898;10.854;2023-11-18T03:55:03;4.22;;;2.45;;
65896;SDS011;52677;50.898;10.854;2023-11-18T03:57:07;6.78;;;2.42;;
65896;SDS011;52677;50.898;10.854;2023-11-18T03:59:08;4.20;;;2.22;;
65896;SDS011;52677;50.898;10.854;2023-11-18T04:01:09;3.20;;;2.35;;
65896;SDS011;52677;50.898;10.854;2023-11-18T04:03:11;3.70;;;2.50;;
65896;SDS011;52677;50.898;10.854;2023-11-18T04:05:12;4.13;;;2.38;;
65896;SDS011;52677;50.898;10.854;2023-11-18T04:07:12;4.03;;;2.53;;
65896;SDS011;52677;50.898;10.854;2023-11-18T04:09:13;5.65;;;3.22;;
65896;SDS011;52677;50.898;10.854;2023-11-18T04:11:14;3.85;;;2.85;;
65896;SDS011;52677;50.898;10.854;2023-11-18T04:13:14;5.10;;;2.92;;
65896;SDS011;52677;50.898;10.854;2023-11-18T04:15:15;3.70;;;2.88;;
65896;SDS011;52677;50.898;10.854;2023-11-18T04:17:15;4.95;;;3.10;;
65896;SDS011;52677;50.898;10.854;2023-11-18T04:19:16;7.65;;;3.38;;
65896;SDS011;52677;50.898;10.854;2023-11-18T04:21:17;5.38;;;3.38;;
65896;SDS011;52677;50.898;10.854;2023-11-18T04:23:18;5.85;;;3.35;;
65896;SDS011;52677;50.898;10.854;2023-11-18T04:25:18;5.95;;;3.72;;
65896;SDS011;52677;50.898;10.854;2023-11-18T04:27:19;7.65;;;4.25;;
65896;SDS011;52677;50.898;10.854;2023-11-18T04:29:19;6.82;;;3.80;;
65896;SDS011;52677;50.898;10.854;2023-11-18T04:31:21;8.05;;;4.47;;
65896;SDS011;52677;50.898;10.854;2023-11-18T04:33:21;4.93;;;3.80;;
65896;SDS011;52677;50.898;10.854;2023-11-18T04:35:22;6.53;;;3.50;;
65896;SDS011;52677;50.898;10.854;2023-11-18T04:37:24;8.15;;;3.78;;
65896;SDS011;52677;50.898;10.854;2023-11-18T04:39:25;5.60;;;3.47;;
65896;SDS011;52677;50.898;10.854;2023-11-18T04:41:25;4.43;;;3.28;;
65896;SDS011;52677;50.898;10.854;2023-11-18T04:43:26;5.28;;;3.17;;
65896;SDS011;52677;50.898;10.854;2023-11-18T04:45:26;4.75;;;3.00;;
65896;SDS011;52677;50.898;10.854;2023-11-18T04:47:26;5.35;;;3.60;;
65896;SDS011;52677;50.898;10.854;2023-11-18T04:49:27;4.72;;;3.33;;
65896;SDS011;52677;50.898;10.854;2023-11-18T04:51:27;3.63;;;2.58;;
65896;SDS011;52677;50.898;10.854;2023-11-18T04:53:27;3.85;;;3.05;;
65896;SDS011;52677;50.898;10.854;2023-11-18T04:55:28;5.20;;;3.33;;
65896;SDS011;52677;50.898;10.854;2023-11-18T04:57:28;6.53;;;3.15;;
65896;SDS011;52677;50.898;10.854;2023-11-18T04:59:29;5.28;;;3.42;;
65896;SDS011;52677;50.898;10.854;2023-11-18T05:01:31;4.72;;;3.28;;
65896;SDS011;52677;50.898;10.854;2023-11-18T05:03:32;5.15;;;3.28;;
65896;SDS011;52677;50.898;10.854;2023-11-18T05:05:32;5.95;;;3.22;;
65896;SDS011;52677;50.898;10.854;2023-11-18T05:07:33;6.78;;;3.38;;
65896;SDS011;52677;50.898;10.854;2023-11-18T05:09:34;5.90;;;3.60;;
65896;SDS011;52677;50.898;10.854;2023-11-18T05:11:35;4.53;;;3.08;;
65896;SDS011;52677;50.898;10.854;2023-11-18T05:13:35;4.55;;;2.85;;
65896;SDS011;52677;50.898;10.854;2023-11-18T05:15:36;4.80;;;3.28;;
65896;SDS011;52677;50.898;10.854;2023-11-18T05:17:37;6.28;;;3.42;;
65896;SDS011;52677;50.898;10.854;2023-11-18T05:19:38;7.10;;;3.60;;
65896;SDS011;52677;50.898;10.854;2023-11-18T05:21:38;7.03;;;4.35;;
65896;SDS011;52677;50.898;10.854;2023-11-18T05:23:39;11.20;;;6.85;;
65896;SDS011;52677;50.898;10.854;2023-11-18T05:25:39;13.65;;;7.47;;
65896;SDS011;52677;50.898;10.854;2023-11-18T05:27:40;11.00;;;7.05;;
65896;SDS011;52677;50.898;10.854;2023-11-18T05:29:40;11.73;;;7.50;;
65896;SDS011;52677;50.898;10.854;2023-11-18T05:31:54;11.13;;;7.63;;
65896;SDS011;52677;50.898;10.854;2023-11-18T05:33:57;11.07;;;7.32;;
65896;SDS011;52677;50.898;10.854;2023-11-18T05:35:58;10.18;;;6.63;;
65896;SDS011;52677;50.898;10.854;2023-11-18T05:37:58;9.23;;;6.75;;
65896;SDS011;52677;50.898;10.854;2023-11-18T05:40:00;9.20;;;6.10;;
65896;SDS011;52677;50.898;10.854;2023-11-18T05:42:06;8.30;;;5.45;;
65896;SDS011;52677;50.898;10.854;2023-11-18T05:44:06;10.60;;;5.18;;
65896;SDS011;52677;50.898;10.854;2023-11-18T05:46:09;9.05;;;4.38;;
65896;SDS011;52677;50.898;10.854;2023-11-18T05:48:22;7.93;;;5.00;;
65896;SDS011;52677;50.898;10.854;2023-11-18T05:50:23;5.53;;;3.67;;
65896;SDS011;52677;50.898;10.854;2023-11-18T05:52:27;7.07;;;3.58;;
65896;SDS011;52677;50.898;10.854;2023-11-18T05:54:27;6.63;;;3.70;;
65896;SDS011;52677;50.898;10.854;2023-11-18T05:56:27;7.55;;;4.10;;
65896;SDS011;52677;50.898;10.854;2023-11-18T05:58:28;5.10;;;3.80;;
65896;SDS011;52677;50.898;10.854;2023-11-18T06:00:28;5.53;;;3.83;;
65896;SDS011;52677;50.898;10.854;2023-11-18T06:02:30;7.53;;;3.83;;
65896;SDS011;52677;50.898;10.854;2023-11-18T06:04:31;8.88;;;4.05;;
65896;SDS011;52677;50.898;10.854;2023-11-18T06:06:31;5.28;;;3.33;;
65896;SDS011;52677;50.898;10.854;2023-11-18T06:08:32;7.07;;;3.70;;
65896;SDS011;52677;50.898;10.854;2023-11-18T06:10:39;6.85;;;4.15;;
65896;SDS011;52677;50.898;10.854;2023-11-18T06:12:39;5.88;;;3.78;;
65896;SDS011;52677;50.898;10.854;2023-11-18T06:14:40;12.15;;;3.60;;
65896;SDS011;52677;50.898;10.854;2023-11-18T06:16:42;5.43;;;3.65;;
65896;SDS011;52677;50.898;10.854;2023-11-18T06:18:43;7.50;;;4.05;;
65896;SDS011;52677;50.898;10.854;2023-11-18T06:20:44;8.90;;;4.25;;
65896;SDS011;52677;50.898;10.854;2023-11-18T06:22:45;8.45;;;4.45;;
65896;SDS011;52677;50.898;10.854;2023-11-18T06:24:45;6.63;;;4.05;;
65896;SDS011;52677;50.898;10.854;2023-11-18T06:26:45;6.70;;;4.03;;
65896;SDS011;52677;50.898;10.854;2023-11-18T06:28:47;6.10;;;4.20;;
65896;SDS011;52677;50.898;10.854;2023-11-18T06:30:51;10.13;;;4.35;;
65896;SDS011;52677;50.898;10.854;2023-11-18T06:32:51;16.30;;;5.75;;
65896;SDS011;52677;50.898;10.854;2023-11-18T06:34:52;12.55;;;5.03;;
65896;SDS011;52677;50.898;10.854;2023-11-18T06:36:53;8.18;;;4.20;;
65896;SDS011;52677;50.898;10.854;2023-11-18T06:38:54;7.70;;;4.40;;
65896;SDS011;52677;50.898;10.854;2023-11-18T06:40:56;8.32;;;4.28;;
65896;SDS011;52677;50.898;10.854;2023-11-18T06:42:59;11.48;;;3.95;;
65896;SDS011;52677;50.898;10.854;2023-11-18T06:45:02;13.60;;;4.50;;
65896;SDS011;52677;50.898;10.854;2023-11-18T06:47:04;6.15;;;4.20;;
65896;SDS011;52677;50.898;10.854;2023-11-18T06:49:06;11.07;;;4.63;;
65896;SDS011;52677;50.898;10.854;2023-11-18T06:51:07;9.77;;;4.88;;
65896;SDS011;52677;50.898;10.854;2023-11-18T06:53:08;8.13;;;4.60;;
65896;SDS011;52677;50.898;10.854;2023-11-18T06:55:08;7.88;;;4.32;;
65896;SDS011;52677;50.898;10.854;2023-11-18T06:57:08;7.43;;;5.38;;
65896;SDS011;52677;50.898;10.854;2023-11-18T06:59:09;10.88;;;5.53;;
65896;SDS011;52677;50.898;10.854;2023-11-18T07:01:13;9.95;;;5.20;;
65896;SDS011;52677;50.898;10.854;2023-11-18T07:03:14;10.00;;;5.70;;
65896;SDS011;52677;50.898;10.854;2023-11-18T07:05:16;8.23;;;5.65;;
65896;SDS011;52677;50.898;10.854;2023-11-18T07:07:18;10.77;;;6.03;;
65896;SDS011;52677;50.898;10.854;2023-11-18T07:09:18;10.00;;;6.10;;
65896;SDS011;52677;50.898;10.854;2023-11-18T07:11:20;10.38;;;6.43;;
65896;SDS011;52677;50.898;10.854;2023-11-18T07:13:21;11.50;;;5.75;;
65896;SDS011;52677;50.898;10.854;2023-11-18T07:15:23;10.13;;;6.43;;
65896;SDS011;52677;50.898;10.854;2023-11-18T07:17:23;8.88;;;5.97;;
65896;SDS011;52677;50.898;10.854;2023-11-18T07:19:23;12.60;;;7.70;;
65896;SDS011;52677;50.898;10.854;2023-11-18T07:21:24;10.98;;;6.55;;
65896;SDS011;52677;50.898;10.854;2023-11-18T07:23:24;11.30;;;6.38;;
65896;SDS011;52677;50.898;10.854;2023-11-18T07:25:24;11.82;;;6.45;;
65896;SDS011;52677;50.898;10.854;2023-11-18T07:27:25;14.00;;;6.97;;
65896;SDS011;52677;50.898;10.854;2023-11-18T07:29:25;13.02;;;7.00;;
65896;SDS011;52677;50.898;10.854;2023-11-18T07:31:27;12.30;;;6.97;;
65896;SDS011;52677;50.898;10.854;2023-11-18T07:33:28;12.45;;;7.07;;
65896;SDS011;52677;50.898;10.854;2023-11-18T07:35:29;9.88;;;6.63;;
65896;SDS011;52677;50.898;10.854;2023-11-18T07:37:29;11.65;;;6.70;;
65896;SDS011;52677;50.898;10.854;2023-11-18T07:39:32;9.55;;;6.90;;
65896;SDS011;52677;50.898;10.854;2023-11-18T07:41:53;15.40;;;6.03;;
65896;SDS011;52677;50.898;10.854;2023-11-18T07:43:53;12.45;;;5.78;;
65896;SDS011;52677;50.898;10.854;2023-11-18T07:45:55;8.48;;;5.65;;
65896;SDS011;52677;50.898;10.854;2023-11-18T07:47:56;13.32;;;5.78;;
65896;SDS011;52677;50.898;10.854;2023-11-18T07:49:57;9.13;;;6.45;;
65896;SDS011;52677;50.898;10.854;2023-11-18T07:51:59;9.27;;;6.15;;
65896;SDS011;52677;50.898;10.854;2023-11-18T07:53:59;8.43;;;5.90;;
65896;SDS011;52677;50.898;10.854;2023-11-18T07:55:59;10.27;;;6.43;;
65896;SDS011;52677;50.898;10.854;2023-11-18T07:58:01;10.70;;;6.85;;
65896;SDS011;52677;50.898;10.854;2023-11-18T08:00:04;9.50;;;6.50;;
65896;SDS011;52677;50.898;10.854;2023-11-18T08:02:10;7.55;;;5.63;;
65896;SDS011;52677;50.898;10.854;2023-11-18T08:04:11;8.25;;;5.55;;
65896;SDS011;52677;50.898;10.854;2023-11-18T08:06:14;11.25;;;6.30;;
65896;SDS011;52677;50.898;10.854;2023-11-18T08:08:15;8.27;;;5.45;;
65896;SDS011;52677;50.898;10.854;2023-11-18T08:10:16;9.50;;;5.70;;
65896;SDS011;52677;50.898;10.854;2023-11-18T08:12:18;9.50;;;5.07;;
65896;SDS011;52677;50.898;10.854;2023-11-18T08:14:20;10.60;;;4.90;;
65896;SDS011;52677;50.898;10.854;2023-11-18T08:16:20;6.55;;;4.03;;
65896;SDS011;52677;50.898;10.854;2023-11-18T08:18:22;8.23;;;4.05;;
65896;SDS011;52677;50.898;10.854;2023-11-18T08:20:24;6.10;;;3.72;;
65896;SDS011;52677;50.898;10.854;2023-11-18T08:22:25;7.07;;;3.97;;
65896;SDS011;52677;50.898;10.854;2023-11-18T08:24:25;7.38;;;3.90;;
65896;SDS011;52677;50.898;10.854;2023-11-18T08:26:26;7.63;;;4.22;;
65896;SDS011;52677;50.898;10.854;2023-11-18T08:28:27;7.43;;;3.83;;
65896;SDS011;52677;50.898;10.854;2023-11-18T08:30:27;11.57;;;4.13;;
65896;SDS011;52677;50.898;10.854;2023-11-18T08:32:27;6.45;;;3.80;;
65896;SDS011;52677;50.898;10.854;2023-11-18T08:34:27;10.93;;;4.78;;
65896;SDS011;52677;50.898;10.854;2023-11-18T08:36:28;9.55;;;5.20;;
65896;SDS011;52677;50.898;10.854;2023-11-18T08:38:32;9.90;;;5.55;;
65896;SDS011;52677;50.898;10.854;2023-11-18T08:40:32;11.50;;;6.32;;
65896;SDS011;52677;50.898;10.854;2023-11-18T08:42:34;8.05;;;5.55;;
65896;SDS011;52677;50.898;10.854;2023-11-18T08:44:35;8.50;;;5.97;;
65896;SDS011;52677;50.898;10.854;2023-11-18T08:46:35;9.75;;;5.72;;
65896;SDS011;52677;50.898;10.854;2023-11-18T08:48:35;7.82;;;5.38;;
65896;SDS011;52677;50.898;10.854;2023-11-18T08:50:36;10.77;;;5.15;;
65896;SDS011;52677;50.898;10.854;2023-11-18T08:52:39;14.63;;;4.78;;
65896;SDS011;52677;50.898;10.854;2023-11-18T08:54:47;11.43;;;4.50;;
65896;SDS011;52677;50.898;10.854;2023-11-18T08:57:05;10.43;;;4.65;;
65896;SDS011;52677;50.898;10.854;2023-11-18T08:59:24;12.85;;;4.68;;
65896;SDS011;52677;50.898;10.854;2023-11-18T09:01:27;6.82;;;4.32;;
65896;SDS011;52677;50.898;10.854;2023-11-18T09:03:28;10.85;;;7.63;;
65896;SDS011;52677;50.898;10.854;2023-11-18T09:05:34;8.55;;;7.10;;
65896;SDS011;52677;50.898;10.854;2023-11-18T09:07:35;9.03;;;7.47;;
65896;SDS011;52677;50.898;10.854;2023-11-18T09:09:37;12.43;;;6.20;;
65896;SDS011;52677;50.898;10.854;2023-11-18T09:11:39;11.50;;;6.40;;
65896;SDS011;52677;50.898;10.854;2023-11-18T09:13:45;9.85;;;6.68;;
65896;SDS011;52677;50.898;10.854;2023-11-18T09:15:49;10.82;;;5.30;;
65896;SDS011;52677;50.898;10.854;2023-11-18T09:17:50;6.63;;;4.47;;
65896;SDS011;52677;50.898;10.854;2023-11-18T09:19:50;10.88;;;5.28;;
65896;SDS011;52677;50.898;10.854;2023-11-18T09:21:52;10.63;;;4.75;;
65896;SDS011;52677;50.898;10.854;2023-11-18T09:23:54;9.17;;;5.60;;
65896;SDS011;52677;50.898;10.854;2023-11-18T09:25:56;9.40;;;5.47;;
65896;SDS011;52677;50.898;10.854;2023-11-18T09:27:56;7.85;;;4.82;;
65896;SDS011;52677;50.898;10.854;2023-11-18T09:29:58;6.45;;;4.20;;
65896;SDS011;52677;50.898;10.854;2023-11-18T09:32:00;10.48;;;5.05;;
65896;SDS011;52677;50.898;10.854;2023-11-18T09:34:05;8.43;;;4.60;;
65896;SDS011;52677;50.898;10.854;2023-11-18T09:36:07;8.05;;;5.47;;
65896;SDS011;52677;50.898;10.854;2023-11-18T09:38:08;7.55;;;4.90;;
65896;SDS011;52677;50.898;10.854;2023-11-18T09:40:13;8.85;;;4.57;;
65896;SDS011;52677;50.898;10.854;2023-11-18T09:42:14;8.35;;;4.90;;
65896;SDS011;52677;50.898;10.854;2023-11-18T09:44:18;5.85;;;4.18;;
65896;SDS011;52677;50.898;10.854;2023-11-18T09:46:24;7.10;;;4.32;;
65896;SDS011;52677;50.898;10.854;2023-11-18T09:48:32;9.63;;;3.88;;
65896;SDS011;52677;50.898;10.854;2023-11-18T09:50:40;7.25;;;5.15;;
65896;SDS011;52677;50.898;10.854;2023-11-18T09:52:47;5.90;;;3.88;;
65896;SDS011;52677;50.898;10.854;2023-11-18T09:57:19;9.50;;;4.40;;
65896;SDS011;52677;50.898;10.854;2023-11-18T09:59:49;7.90;;;4.70;;
65896;SDS011;52677;50.898;10.854;2023-11-18T10:01:56;7.13;;;5.07;;
65896;SDS011;52677;50.898;10.854;2023-11-18T10:03:58;10.82;;;6.32;;
65896;SDS011;52677;50.898;10.854;2023-11-18T10:05:59;7.90;;;4.47;;
65896;SDS011;52677;50.898;10.854;2023-11-18T10:08:07;7.63;;;4.85;;
65896;SDS011;52677;50.898;10.854;2023-11-18T10:10:08;5.60;;;2.80;;
65896;SDS011;52677;50.898;10.854;2023-11-18T10:12:14;4.88;;;3.17;;
65896;SDS011;52677;50.898;10.854;2023-11-18T10:14:16;4.47;;;2.70;;
65896;SDS011;52677;50.898;10.854;2023-11-18T10:16:17;3.85;;;3.00;;
65896;SDS011;52677;50.898;10.854;2023-11-18T10:18:18;3.85;;;2.65;;
65896;SDS011;52677;50.898;10.854;2023-11-18T10:22:45;5.25;;;3.63;;
65896;SDS011;52677;50.898;10.854;2023-11-18T10:24:45;3.50;;;2.63;;
65896;SDS011;52677;50.898;10.854;2023-11-18T10:26:53;3.80;;;2.55;;
65896;SDS011;52677;50.898;10.854;2023-11-18T10:28:59;3.35;;;2.40;;
65896;SDS011;52677;50.898;10.854;2023-11-18T10:31:06;4.15;;;2.33;;
65896;SDS011;52677;50.898;10.854;2023-11-18T10:33:09;3.47;;;2.08;;
65896;SDS011;52677;50.898;10.854;2023-11-18T10:35:11;4.10;;;2.45;;
65896;SDS011;52677;50.898;10.854;2023-11-18T10:37:12;3.55;;;2.25;;
65896;SDS011;52677;50.898;10.854;2023-11-18T10:39:13;6.65;;;4.13;;
65896;SDS011;52677;50.898;10.854;2023-11-18T10:43:19;6.00;;;3.60;;
65896;SDS011;52677;50.898;10.854;2023-11-18T10:45:25;13.10;;;7.05;;
65896;SDS011;52677;50.898;10.854;2023-11-18T10:47:27;10.25;;;5.28;;
65896;SDS011;52677;50.898;10.854;2023-11-18T10:49:29;5.82;;;3.92;;
65896;SDS011;52677;50.898;10.854;2023-11-18T10:51:36;3.55;;;2.65;;
65896;SDS011;52677;50.898;10.854;2023-11-18T10:53:41;6.43;;;3.75;;
65896;SDS011;52677;50.898;10.854;2023-11-18T10:55:53;5.80;;;3.50;;
65896;SDS011;52677;50.898;10.854;2023-11-18T10:57:54;3.42;;;2.60;;
65896;SDS011;52677;50.898;10.854;2023-11-18T10:59:58;3.40;;;2.42;;
65896;SDS011;52677;50.898;10.854;2023-11-18T11:01:59;4.95;;;2.65;;
65896;SDS011;52677;50.898;10.854;2023-11-18T11:04:01;3.13;;;2.20;;
65896;SDS011;52677;50.898;10.854;2023-11-18T11:06:16;3.35;;;2.35;;
65896;SDS011;52677;50.898;10.854;2023-11-18T11:08:19;2.85;;;2.00;;
65896;SDS011;52677;50.898;10.854;2023-11-18T11:10:20;3.47;;;2.33;;
65896;SDS011;52677;50.898;10.854;2023-11-18T11:12:28;4.43;;;2.67;;
65896;SDS011;52677;50.898;10.854;2023-11-18T11:14:33;11.65;;;6.28;;
65896;SDS011;52677;50.898;10.854;2023-11-18T11:16:41;12.07;;;5.70;;
65896;SDS011;52677;50.898;10.854;2023-11-18T11:20:47;25.92;;;9.82;;
65896;SDS011;52677;50.898;10.854;2023-11-18T11:25:44;6.00;;;3.20;;
65896;SDS011;52677;50.898;10.854;2023-11-18T11:28:20;35.80;;;14.98;;
65896;SDS011;52677;50.898;10.854;2023-11-18T11:30:23;19.23;;;8.57;;
65896;SDS011;52677;50.898;10.854;2023-11-18T11:32:29;6.82;;;3.30;;
65896;SDS011;52677;50.898;10.854;2023-11-18T11:34:40;4.55;;;2.65;;
65896;SDS011;52677;50.898;10.854;2023-11-18T11:36:47;6.68;;;3.60;;
65896;SDS011;52677;50.898;10.854;2023-11-18T11:38:51;10.07;;;4.30;;
65896;SDS011;52677;50.898;10.854;2023-11-18T11:40:55;6.88;;;4.35;;
65896;SDS011;52677;50.898;10.854;2023-11-18T11:43:06;7.15;;;4.38;;
65896;SDS011;52677;50.898;10.854;2023-11-18T11:45:10;4.75;;;3.20;;
65896;SDS011;52677;50.898;10.854;2023-11-18T11:47:19;5.38;;;3.38;;
65896;SDS011;52677;50.898;10.854;2023-11-18T11:49:23;6.93;;;4.28;;
65896;SDS011;52677;50.898;10.854;2023-11-18T11:51:33;3.72;;;2.53;;
65896;SDS011;52677;50.898;10.854;2023-11-18T11:54:11;5.45;;;3.22;;
65896;SDS011;52677;50.898;10.854;2023-11-18T11:56:16;6.45;;;3.38;;
65896;SDS011;52677;50.898;10.854;2023-11-18T11:58:30;4.32;;;3.10;;
65896;SDS011;52677;50.898;10.854;2023-11-18T12:00:33;3.95;;;2.83;;
65896;SDS011;52677;50.898;10.854;2023-11-18T12:02:35;11.32;;;3.28;;
65896;SDS011;52677;50.898;10.854;2023-11-18T12:04:36;3.50;;;2.33;;
65896;SDS011;52677;50.898;10.854;2023-11-18T12:06:40;5.32;;;2.83;;
65896;SDS011;52677;50.898;10.854;2023-11-18T12:08:42;3.35;;;2.38;;
65896;SDS011;52677;50.898;10.854;2023-11-18T12:10:50;3.42;;;2.40;;
65896;SDS011;52677;50.898;10.854;2023-11-18T12:13:08;3.22;;;2.25;;
65896;SDS011;52677;50.898;10.854;2023-11-18T12:15:47;3.95;;;2.58;;
65896;SDS011;52677;50.898;10.854;2023-11-18T12:19:51;4.18;;;2.50;;
65896;SDS011;52677;50.898;10.854;2023-11-18T12:21:58;4.10;;;2.53;;
65896;SDS011;52677;50.898;10.854;2023-11-18T12:24:16;4.45;;;2.67;;